Time;durP1;ratioP1;P1;durP2;ratioP2;P2;SDS_P1;SDS_P2;PMS_P1;PMS_P2;Temp;Humidity;BMP_temperature;BMP_pressure;BME280_temperature;BME280_humidity;BME280_pressure;Samples;Min_cycle;Max_cycle;Signal;HPM_P1;HPM_P2
2022/03/19 00:02:22;;;;;;;34.90;14.07;;;;;;;-6.41;67.69;102858.17;1712984;82;21047;-68
2022/03/19 00:04:53;;;;;;;28.37;13.10;;;;;;;-6.46;67.31;102854.77;1713037;82;21102;-67
2022/03/19 00:07:19;;;;;;;28.53;13.03;;;;;;;-6.50;67.21;102863.89;1712953;83;21032;-67
2022/03/19 00:09:46;;;;;;;30.40;14.80;;;;;;;-6.54;67.09;102855.05;1713010;82;21885;-66
2022/03/19 00:12:14;;;;;;;33.73;14.40;;;;;;;-6.60;66.97;102852.05;1713174;83;21094;-67
2022/03/19 00:14:42;;;;;;;33.90;14.37;;;;;;;-6.63;67.13;102858.20;1712994;82;21094;-66
2022/03/19 00:17:10;;;;;;;42.20;14.97;;;;;;;-6.66;67.17;102848.12;1713135;82;21059;-66
2022/03/19 00:19:38;;;;;;;33.47;13.50;;;;;;;-6.71;66.90;102847.77;1713300;82;21059;-67
2022/03/19 00:22:05;;;;;;;33.13;14.63;;;;;;;-6.75;66.79;102845.73;1713020;82;21246;-67
2022/03/19 00:24:32;;;;;;;36.43;15.50;;;;;;;-6.75;66.86;102848.30;1702814;83;21055;-67
2022/03/19 00:26:58;;;;;;;41.47;15.27;;;;;;;-6.75;66.83;102845.73;1713003;83;21071;-67
2022/03/19 00:29:25;;;;;;;35.27;15.67;;;;;;;-6.75;66.72;102843.17;1713078;82;21057;-67
2022/03/19 00:31:52;;;;;;;38.10;17.30;;;;;;;-6.76;66.84;102838.84;1712965;82;21111;-67
2022/03/19 00:34:18;;;;;;;36.67;15.77;;;;;;;-6.77;66.78;102838.31;1735912;82;21211;-67
2022/03/19 00:36:45;;;;;;;33.83;16.27;;;;;;;-6.77;66.86;102839.60;1734322;82;21017;-67
2022/03/19 00:39:12;;;;;;;40.50;15.70;;;;;;;-6.78;67.14;102835.27;1746175;81;21054;-65
2022/03/19 00:41:39;;;;;;;39.57;17.07;;;;;;;-6.80;67.43;102832.97;1746198;82;21022;-66
2022/03/19 00:44:07;;;;;;;38.97;17.87;;;;;;;-6.81;67.63;102831.16;1747075;82;21034;-67
2022/03/19 00:46:34;;;;;;;44.47;17.70;;;;;;;-6.80;67.99;102829.13;1746119;82;21659;-67
2022/03/19 00:49:02;;;;;;;38.70;17.40;;;;;;;-6.85;68.20;102823.65;1737625;82;21040;-68
2022/03/19 00:51:29;;;;;;;33.10;15.40;;;;;;;-6.86;68.34;102828.64;1712998;83;21043;-67
2022/03/19 00:53:56;;;;;;;38.20;15.67;;;;;;;-6.90;68.23;102825.33;1713096;83;21063;-67
2022/03/19 00:56:22;;;;;;;39.00;16.10;;;;;;;-6.93;68.62;102818.70;1713138;82;21047;-66
2022/03/19 00:58:49;;;;;;;39.23;15.73;;;;;;;-6.97;68.49;102819.77;1713018;83;21147;-66
2022/03/19 01:01:17;;;;;;;34.53;15.27;;;;;;;-7.01;68.55;102820.69;1712957;82;21004;-67
2022/03/19 01:03:44;;;;;;;32.70;13.77;;;;;;;-7.04;68.77;102821.34;1712945;82;21023;-67
2022/03/19 01:06:12;;;;;;;29.33;12.67;;;;;;;-7.06;68.83;102815.20;1713016;83;21083;-68
2022/03/19 01:08:40;;;;;;;33.00;13.47;;;;;;;-7.08;69.08;102816.75;1712920;82;21087;-67
2022/03/19 01:11:08;;;;;;;33.17;15.50;;;;;;;-7.11;69.47;102817.77;1712800;82;21043;-67
2022/03/19 01:13:36;;;;;;;32.70;15.23;;;;;;;-7.15;69.82;102817.05;1712777;82;21055;-67
2022/03/19 01:16:04;;;;;;;38.60;16.43;;;;;;;-7.19;70.00;102812.46;1712954;82;21063;-67
2022/03/19 01:18:33;;;;;;;37.17;15.93;;;;;;;-7.28;70.04;102816.87;1713015;82;21095;-67
2022/03/19 01:21:00;;;;;;;34.67;14.90;;;;;;;-7.34;70.30;102817.27;1713119;83;21193;-67
2022/03/19 01:23:29;;;;;;;35.70;14.83;;;;;;;-7.42;70.18;102810.27;1713032;83;21365;-67
2022/03/19 01:25:56;;;;;;;33.50;14.67;;;;;;;-7.48;70.18;102807.61;1713105;83;21560;-66
2022/03/19 01:28:24;;;;;;;33.43;14.33;;;;;;;-7.52;70.24;102812.89;1713147;83;21071;-67
2022/03/19 01:30:51;;;;;;;32.20;15.03;;;;;;;-7.55;70.30;102811.34;1712940;82;21055;-67
2022/03/19 01:33:17;;;;;;;34.23;15.23;;;;;;;-7.57;70.20;102814.56;1717533;82;21625;-67
2022/03/19 01:35:44;;;;;;;30.53;13.90;;;;;;;-7.61;70.21;102810.88;1742545;82;21675;-67
2022/03/19 01:38:10;;;;;;;33.67;15.00;;;;;;;-7.66;70.13;102805.76;1754590;81;21521;-67
2022/03/19 01:40:38;;;;;;;27.10;12.73;;;;;;;-7.69;70.15;102806.80;1755667;81;21047;-67
2022/03/19 01:43:05;;;;;;;34.93;16.27;;;;;;;-7.70;70.13;102817.83;1756059;81;21065;-68
2022/03/19 01:45:32;;;;;;;29.17;13.83;;;;;;;-7.70;70.50;102810.15;1755995;81;21113;-67
2022/03/19 01:47:59;;;;;;;32.73;15.27;;;;;;;-7.73;70.32;102804.77;1755996;81;21310;-66
2022/03/19 01:50:26;;;;;;;30.10;15.03;;;;;;;-7.75;70.27;102802.47;1733287;81;21051;-67
2022/03/19 01:52:55;;;;;;;27.07;11.83;;;;;;;-7.76;70.27;102798.14;1725839;82;21074;-66
2022/03/19 01:55:26;;;;;;;31.67;14.33;;;;;;;-7.76;70.15;102798.14;1726004;82;21118;-67
2022/03/19 01:57:55;;;;;;;31.60;15.43;;;;;;;-7.77;70.53;102798.92;1725739;82;21063;-66
2022/03/19 02:00:23;;;;;;;33.57;14.23;;;;;;;-7.81;70.55;102793.53;1726001;83;21189;-67
2022/03/19 02:02:54;;;;;;;40.70;16.43;;;;;;;-7.80;70.60;102799.54;1725873;81;21610;-66
2022/03/19 02:05:23;;;;;;;29.83;14.03;;;;;;;-7.81;70.71;102802.89;1725934;83;20988;-67
2022/03/19 02:07:51;;;;;;;27.47;14.27;;;;;;;-7.84;70.93;102799.70;1725669;83;21764;-67
2022/03/19 02:10:19;;;;;;;30.33;14.93;;;;;;;-7.85;71.46;102800.84;1725752;82;21042;-67
2022/03/19 02:12:47;;;;;;;31.52;14.85;;;;;;;-7.86;71.85;102799.07;1725984;82;21571;-67
2022/03/19 02:15:14;;;;;;;33.90;14.47;;;;;;;-7.89;71.83;102798.45;1725940;82;21035;-68
2022/03/19 02:17:43;;;;;;;30.10;14.83;;;;;;;-7.90;71.76;102806.88;1725760;83;21011;-66
2022/03/19 02:20:11;;;;;;;30.27;13.10;;;;;;;-7.92;72.02;102807.13;1725723;82;21102;-67
2022/03/19 02:22:40;;;;;;;24.20;12.50;;;;;;;-7.95;72.20;102810.73;1725768;82;21066;-67
2022/03/19 02:27:55;;;;;;;32.30;13.77;;;;;;;-8.00;72.40;102813.30;1725765;83;21568;-67
2022/03/19 02:30:21;;;;;;;33.23;14.73;;;;;;;-8.05;72.48;102810.38;1725830;83;21044;-66
2022/03/19 02:32:51;;;;;;;35.47;14.63;;;;;;;-8.06;72.44;102814.08;1725804;83;21078;-67
2022/03/19 02:35:18;;;;;;;34.37;14.97;;;;;;;-8.09;72.29;102816.40;1725868;83;21046;-66
2022/03/19 02:37:48;;;;;;;32.67;14.87;;;;;;;-8.12;72.33;102812.29;1717965;82;21163;-67
2022/03/19 02:40:19;;;;;;;33.65;14.65;;;;;;;-8.13;72.70;102814.35;1713374;82;21067;-68
2022/03/19 02:42:50;;;;;;;34.47;15.37;;;;;;;-8.15;73.02;102810.77;1713285;82;21114;-68
2022/03/19 02:45:20;;;;;;;37.77;16.13;;;;;;;-8.14;73.21;102811.27;1713172;83;21025;-66
2022/03/19 02:47:58;;;;;;;33.20;15.80;;;;;;;-8.14;73.50;102812.19;1713386;83;21048;-67
2022/03/19 02:50:29;;;;;;;31.63;15.60;;;;;;;-8.12;73.60;102813.57;1713234;83;21296;-66
2022/03/19 02:52:57;;;;;;;30.82;15.05;;;;;;;-8.14;73.67;102817.30;1713473;83;21085;-66
2022/03/19 02:55:25;;;;;;;35.07;15.87;;;;;;;-8.12;73.84;102816.13;1713088;82;21081;-66
2022/03/19 02:57:52;;;;;;;31.30;14.43;;;;;;;-8.11;73.89;102821.77;1713007;83;21117;-66
2022/03/19 03:00:19;;;;;;;31.83;14.80;;;;;;;-8.12;73.95;102814.84;1713015;82;21132;-67
2022/03/19 03:02:46;;;;;;;29.27;13.50;;;;;;;-8.10;74.17;102814.59;1713023;83;21248;-67
2022/03/19 03:05:12;;;;;;;36.57;16.03;;;;;;;-8.11;74.25;102817.93;1713057;83;21630;-68
2022/03/19 03:07:41;;;;;;;30.23;15.20;;;;;;;-8.11;74.37;102823.05;1713154;83;21058;-66
2022/03/19 03:10:09;;;;;;;31.50;15.50;;;;;;;-8.10;74.55;102823.54;1713182;83;21022;-67
2022/03/19 03:12:37;;;;;;;36.60;16.80;;;;;;;-8.08;74.84;102828.40;1713059;82;21082;-67
2022/03/19 03:15:06;;;;;;;36.60;17.07;;;;;;;-8.06;75.08;102828.14;1713466;83;21229;-67
2022/03/19 03:17:34;;;;;;;37.97;17.70;;;;;;;-8.08;75.02;102828.40;1713097;83;21561;-66
2022/03/19 03:20:03;;;;;;;34.63;17.27;;;;;;;-8.08;75.06;102834.79;1713064;83;21054;-67
2022/03/19 03:22:31;;;;;;;36.07;16.87;;;;;;;-8.10;74.93;102837.61;1712909;83;21081;-66
2022/03/19 03:24:59;;;;;;;34.07;16.37;;;;;;;-8.15;74.97;102832.50;1713010;82;21042;-66
2022/03/19 03:27:26;;;;;;;39.20;18.23;;;;;;;-8.18;75.13;102843.77;1713004;83;21221;-65
2022/03/19 03:29:54;;;;;;;34.37;16.13;;;;;;;-8.23;75.20;102839.17;1712819;83;21010;-66
2022/03/19 03:32:20;;;;;;;37.53;16.83;;;;;;;-8.27;75.38;102837.12;1713198;83;21078;-67
2022/03/19 03:34:47;;;;;;;39.13;17.50;;;;;;;-8.29;75.56;102846.71;1713119;82;21050;-65
2022/03/19 03:37:18;;;;;;;35.07;16.37;;;;;;;-8.34;75.69;102849.28;1715766;83;21050;-67
2022/03/19 03:39:44;;;;;;;33.13;16.37;;;;;;;-8.41;75.75;102846.63;1726052;82;21867;-66
2022/03/19 03:42:11;;;;;;;37.93;15.90;;;;;;;-8.48;75.72;102848.16;1725946;83;21065;-68
2022/03/19 03:44:41;;;;;;;27.13;15.70;;;;;;;-8.53;75.89;102852.00;1725851;83;21045;-68
2022/03/19 03:47:08;;;;;;;35.07;15.67;;;;;;;-8.56;75.99;102849.17;1726199;83;21485;-68
2022/03/19 03:49:35;;;;;;;35.17;16.03;;;;;;;-8.61;76.04;102843.67;1725901;83;21011;-67
2022/03/19 03:52:05;;;;;;;33.77;14.73;;;;;;;-8.64;76.34;102848.93;1726873;81;21055;-68
2022/03/19 03:54:32;;;;;;;36.33;17.03;;;;;;;-8.68;76.58;102849.04;1755945;81;21021;-67
2022/03/19 03:56:58;;;;;;;41.40;18.73;;;;;;;-8.71;76.86;102848.79;1755966;81;21100;-67
2022/03/19 03:59:25;;;;;;;37.90;18.67;;;;;;;-8.73;77.09;102856.31;1755861;81;21025;-69
2022/03/19 04:01:52;;;;;;;37.27;18.43;;;;;;;-8.76;77.33;102852.23;1755665;80;21061;-67
2022/03/19 04:04:20;;;;;;;37.33;18.87;;;;;;;-8.76;77.62;102857.73;1755763;81;21085;-67
2022/03/19 04:06:47;;;;;;;46.10;20.03;;;;;;;-8.76;78.03;102856.06;1755679;81;20986;-67
2022/03/19 04:09:14;;;;;;;44.17;19.30;;;;;;;-8.76;78.29;102856.06;1755802;81;21084;-68
2022/03/19 04:11:43;;;;;;;38.10;18.03;;;;;;;-8.76;78.41;102856.06;1755730;81;21061;-68
2022/03/19 04:14:11;;;;;;;37.27;18.07;;;;;;;-8.77;78.53;102856.81;1755864;81;21108;-67
2022/03/19 04:16:37;;;;;;;40.50;18.27;;;;;;;-8.77;78.79;102855.53;1756111;81;21609;-66
2022/03/19 04:19:05;;;;;;;40.57;18.20;;;;;;;-8.77;79.01;102854.26;1755989;81;21073;-70
2022/03/19 04:21:31;;;;;;;38.23;17.97;;;;;;;-8.74;79.17;102854.54;1755780;81;21015;-68
2022/03/19 04:23:59;;;;;;;41.53;19.07;;;;;;;-8.73;79.26;102857.59;1755825;81;21041;-67
2022/03/19 04:26:25;;;;;;;36.37;18.37;;;;;;;-8.71;79.33;102853.51;1756035;81;21116;-67
2022/03/19 04:28:54;;;;;;;39.67;18.30;;;;;;;-8.69;79.29;102854.92;1755923;81;21748;-67
2022/03/19 04:31:20;;;;;;;39.20;18.80;;;;;;;-8.69;79.31;102847.27;1755991;81;21073;-67
2022/03/19 04:33:47;;;;;;;40.10;19.63;;;;;;;-8.63;79.58;102854.53;1755865;81;21029;-67
2022/03/19 04:36:35;;;;;;;37.03;18.50;;;;;;;-8.28;80.74;102847.20;1755958;81;21014;-67
2022/03/19 04:39:02;;;;;;;48.27;20.70;;;;;;;-7.71;81.24;102856.96;1755833;81;22099;-69
2022/03/19 04:41:29;;;;;;;42.00;19.23;;;;;;;-7.05;80.40;102859.64;1756118;81;21191;-68
2022/03/19 04:43:57;;;;;;;38.73;18.03;;;;;;;-6.47;79.27;102856.41;1755950;81;21025;-68
2022/03/19 04:46:25;;;;;;;32.47;18.43;;;;;;;-5.86;78.12;102852.38;1756004;81;21068;-68
2022/03/19 04:48:53;;;;;;;32.53;17.93;;;;;;;-5.18;76.58;102852.08;1752661;81;21058;-69
2022/03/19 04:51:24;;;;;;;39.77;18.27;;;;;;;-4.67;74.45;102846.19;1725812;82;21019;-67
2022/03/19 04:53:51;;;;;;;37.73;18.43;;;;;;;-4.30;72.47;102847.39;1724950;82;21854;-67
2022/03/19 04:56:20;;;;;;;37.03;18.10;;;;;;;-3.83;70.89;102847.08;1725782;83;21142;-68
2022/03/19 04:58:50;;;;;;;32.42;16.93;;;;;;;-3.68;68.68;102855.81;1725792;82;21031;-67
2022/03/19 05:01:17;;;;;;;35.48;17.82;;;;;;;-3.35;68.18;102849.73;1726214;81;21033;-68
2022/03/19 05:03:46;;;;;;;36.35;17.42;;;;;;;-2.88;66.40;102845.75;1725877;81;21048;-68
2022/03/19 05:06:12;;;;;;;48.20;21.75;;;;;;;-2.46;64.01;102847.47;1725824;83;21141;-68
2022/03/19 05:08:40;;;;;;;41.53;19.50;;;;;;;-2.05;62.38;102846.41;1725701;82;21053;-67
2022/03/19 05:11:13;;;;;;;45.05;19.45;;;;;;;-1.71;62.00;102845.77;1726064;83;21565;-68
2022/03/19 05:13:44;;;;;;;35.90;17.92;;;;;;;-1.19;62.49;102844.79;1725774;83;21043;-67
2022/03/19 05:16:12;;;;;;;33.42;16.42;;;;;;;0.42;59.81;102848.27;1726123;83;21081;-67
2022/03/19 05:18:39;;;;;;;33.33;15.95;;;;;;;0.42;59.81;102848.27;1725759;83;21608;-69
2022/03/19 05:21:07;;;;;;;30.75;16.02;;;;;;;1.11;56.64;102849.31;1725859;82;21544;-68
2022/03/19 05:23:35;;;;;;;29.32;15.93;;;;;;;1.65;54.58;102847.36;1725688;83;21061;-68
2022/03/19 05:26:03;;;;;;;27.15;15.63;;;;;;;2.10;52.61;102848.83;1725787;83;21009;-68
2022/03/19 05:28:31;;;;;;;33.23;16.85;;;;;;;2.62;51.49;102857.83;1725821;82;21010;-68
2022/03/19 05:31:01;;;;;;;39.05;20.88;;;;;;;3.10;49.93;102856.22;1725770;82;21061;-69
2022/03/19 05:36:13;;;;;;;34.73;19.17;;;;;;;4.09;48.01;102849.26;1725767;82;21575;-68
2022/03/19 05:38:42;;;;;;;31.73;14.90;;;;;;;4.81;46.44;102854.17;1718842;83;20998;-68
2022/03/19 05:41:08;;;;;;;27.32;13.58;;;;;;;5.38;45.04;102856.72;1713161;82;21085;-67
2022/03/19 05:43:35;;;;;;;26.45;13.60;;;;;;;6.04;43.28;102859.79;1713034;83;21277;-69
2022/03/19 05:46:02;;;;;;;24.45;12.63;;;;;;;6.66;41.58;102859.53;1713122;82;21049;-70
2022/03/19 05:48:29;;;;;;;23.73;12.90;;;;;;;7.19;40.15;102856.31;1713241;83;21037;-69
2022/03/19 05:50:56;;;;;;;21.95;11.93;;;;;;;7.48;37.65;102855.59;1712957;83;21016;-69
2022/03/19 05:53:25;;;;;;;21.77;10.93;;;;;;;7.56;36.63;102863.16;1712884;82;21117;-69
2022/03/19 05:55:53;;;;;;;24.00;11.28;;;;;;;7.78;36.56;102859.64;1712856;83;21320;-69
2022/03/19 05:58:19;;;;;;;18.52;10.38;;;;;;;8.26;36.39;102863.06;1712970;82;21032;-68
2022/03/19 06:00:48;;;;;;;21.30;10.78;;;;;;;8.73;34.39;102870.84;1713183;82;21027;-69
2022/03/19 06:03:16;;;;;;;20.75;10.55;;;;;;;9.18;33.26;102872.34;1713042;82;21078;-69
2022/03/19 06:05:43;;;;;;;17.00;9.68;;;;;;;9.50;32.34;102870.09;1713453;83;21109;-69
2022/03/19 06:08:09;;;;;;;15.85;9.85;;;;;;;9.81;31.71;102864.70;1678294;85;21534;-68
2022/03/19 06:10:37;;;;;;;18.62;9.45;;;;;;;10.24;31.19;102868.16;1713006;83;21062;-68
2022/03/19 06:13:06;;;;;;;16.75;9.60;;;;;;;10.65;30.21;102872.45;1713281;82;21054;-69
2022/03/19 06:15:34;;;;;;;17.30;8.88;;;;;;;10.99;29.36;102867.34;1678707;85;21093;-70
2022/03/19 06:18:02;;;;;;;16.02;9.48;;;;;;;11.23;27.97;102868.35;1713252;83;21057;-69
2022/03/19 06:20:29;;;;;;;14.23;9.18;;;;;;;11.18;28.39;102866.11;1678474;85;21205;-69
2022/03/19 06:22:58;;;;;;;17.35;9.58;;;;;;;11.36;28.17;102868.81;1713536;83;21015;-68
2022/03/19 06:25:25;;;;;;;17.50;9.00;;;;;;;11.68;26.78;102870.67;1678628;85;21064;-68
2022/03/19 06:27:52;;;;;;;13.95;8.50;;;;;;;11.94;26.71;102875.60;1678576;85;21061;-69
2022/03/19 06:30:19;;;;;;;14.20;8.23;;;;;;;12.21;26.12;102870.32;1713337;83;21121;-70
2022/03/19 06:32:46;;;;;;;14.00;7.80;;;;;;;12.48;25.99;102877.36;1713376;83;22140;-69
2022/03/19 06:37:19;;;;;;;17.37;8.43;;;;;;;12.71;24.75;102868.94;1712936;83;21550;-68
2022/03/19 06:37:41;;;;;;;12.37;7.80;;;;;;;12.53;24.57;102871.16;1675483;85;21096;-68
2022/03/19 06:40:09;;;;;;;11.57;7.67;;;;;;;12.56;24.64;102872.92;1725866;83;21001;-68
2022/03/19 06:42:36;;;;;;;12.80;7.37;;;;;;;12.78;24.34;102868.03;1691275;84;21032;-68
2022/03/19 06:45:03;;;;;;;10.53;6.95;;;;;;;12.88;22.82;102869.33;1691310;84;21149;-68
2022/03/19 06:47:31;;;;;;;13.88;7.05;;;;;;;12.84;22.29;102871.54;1691039;84;21640;-69
2022/03/19 06:49:57;;;;;;;17.52;7.75;;;;;;;12.89;22.61;102864.50;1691396;84;21037;-67
2022/03/19 06:52:28;;;;;;;14.35;6.87;;;;;;;12.96;22.48;102870.20;1691042;84;21080;-68
2022/03/19 06:54:53;;;;;;;14.40;7.55;;;;;;;13.26;22.30;102867.00;1690973;84;21552;-68
2022/03/19 06:57:20;;;;;;;11.80;7.75;;;;;;;13.66;21.81;102864.16;1691205;84;22082;-67
2022/03/19 06:59:47;;;;;;;15.60;7.58;;;;;;;13.80;21.04;102865.84;1691101;84;21069;-68
2022/03/19 07:02:14;;;;;;;10.30;6.90;;;;;;;13.73;21.03;102869.84;1691137;84;21028;-69
2022/03/19 07:04:40;;;;;;;12.90;7.90;;;;;;;13.83;21.12;102872.89;1691336;84;21068;-68
2022/03/19 07:07:07;;;;;;;13.10;7.17;;;;;;;14.20;20.55;102875.25;1691167;84;21065;-69
2022/03/19 07:09:35;;;;;;;13.98;7.10;;;;;;;14.31;19.45;102878.70;1691343;84;21017;-68
2022/03/19 07:12:04;;;;;;;10.53;6.72;;;;;;;14.10;19.27;102873.55;1691168;84;21037;-68
2022/03/19 07:14:31;;;;;;;15.00;6.35;;;;;;;14.02;19.90;102866.55;1691690;84;21060;-67
2022/03/19 07:16:58;;;;;;;29.98;7.58;;;;;;;14.20;18.12;102865.98;1691409;84;21036;-67
2022/03/19 07:19:25;;;;;;;11.60;7.00;;;;;;;14.04;18.55;102866.55;1691254;84;21049;-68
2022/03/19 07:21:51;;;;;;;12.23;7.08;;;;;;;14.00;19.31;102863.03;1691212;84;21301;-68
2022/03/19 07:24:19;;;;;;;12.75;6.37;;;;;;;14.22;18.87;102861.09;1691084;84;21036;-69
2022/03/19 07:26:47;;;;;;;11.38;6.58;;;;;;;14.59;19.15;102854.14;1691031;84;21080;-68
2022/03/19 07:29:15;;;;;;;11.00;6.28;;;;;;;14.86;18.54;102862.26;1691110;84;21054;-67
2022/03/19 07:31:42;;;;;;;10.50;5.78;;;;;;;15.19;18.14;102853.91;1691105;84;21028;-67
2022/03/19 07:34:09;;;;;;;10.10;7.00;;;;;;;15.65;18.18;102862.10;1691461;84;21256;-68
2022/03/19 07:36:36;;;;;;;15.78;7.40;;;;;;;16.03;17.31;102863.30;1690882;84;21131;-67
2022/03/19 07:39:03;;;;;;;11.40;5.90;;;;;;;16.24;16.90;102863.84;1685858;84;21044;-68
2022/03/19 07:41:48;;;;;;;10.43;5.90;;;;;;;16.32;16.29;102864.61;1713017;83;21055;-69
2022/03/19 07:44:16;;;;;;;12.55;6.83;;;;;;;16.18;15.80;102866.63;1713069;82;21119;-69
2022/03/19 07:46:43;;;;;;;10.75;7.00;;;;;;;15.94;15.03;102860.80;1713099;83;21064;-68
2022/03/19 07:49:11;;;;;;;13.03;7.05;;;;;;;15.70;15.70;102859.38;1712769;83;21057;-68
2022/03/19 07:51:38;;;;;;;13.08;7.05;;;;;;;15.46;15.54;102861.92;1678671;85;21021;-69
2022/03/19 07:54:04;;;;;;;11.78;6.70;;;;;;;15.21;15.88;102860.95;1712763;83;21601;-69
2022/03/19 07:56:31;;;;;;;10.05;6.22;;;;;;;15.16;16.41;102865.44;1678365;85;21112;-69
2022/03/19 07:58:58;;;;;;;10.85;6.42;;;;;;;15.51;16.46;102870.27;1713226;83;21232;-67
2022/03/19 08:01:24;;;;;;;11.18;6.00;;;;;;;15.92;16.31;102871.93;1713062;82;21098;-69
2022/03/19 08:03:51;;;;;;;11.18;6.50;;;;;;;16.41;15.94;102868.89;1678506;85;21064;-69
2022/03/19 08:06:19;;;;;;;10.05;6.28;;;;;;;16.69;15.80;102862.60;1678500;85;21538;-68
2022/03/19 08:08:46;;;;;;;12.60;7.00;;;;;;;16.72;15.34;102858.54;1678173;85;21109;-69
2022/03/19 08:11:14;;;;;;;13.00;7.05;;;;;;;16.99;15.33;102857.16;1678286;85;21224;-68
2022/03/19 08:13:41;;;;;;;12.00;6.70;;;;;;;16.85;14.84;102864.55;1712730;83;21581;-67
2022/03/19 08:16:08;;;;;;;11.43;6.80;;;;;;;16.92;14.90;102853.73;1712840;82;21065;-69
2022/03/19 08:18:36;;;;;;;11.78;6.75;;;;;;;16.93;14.49;102850.19;1678349;85;21577;-67
2022/03/19 08:21:04;;;;;;;11.03;6.87;;;;;;;16.88;15.08;102858.69;1712949;83;21007;-68
2022/03/19 08:23:31;;;;;;;15.18;7.67;;;;;;;16.80;14.46;102855.33;1678153;85;21203;-68
2022/03/19 08:25:58;;;;;;;12.00;7.83;;;;;;;16.28;15.03;102860.24;1678122;85;21084;-69
2022/03/19 08:28:25;;;;;;;17.55;8.78;;;;;;;15.97;15.74;102856.78;1712719;83;21061;-68
2022/03/19 08:30:52;;;;;;;13.05;8.53;;;;;;;16.17;15.35;102858.22;1712820;83;21062;-68
2022/03/19 08:33:19;;;;;;;15.80;8.58;;;;;;;16.25;15.29;102858.98;1678267;85;21120;-68
2022/03/19 08:35:47;;;;;;;12.65;8.08;;;;;;;16.11;15.15;102855.22;1678363;85;21057;-69
2022/03/19 08:40:59;;;;;;;12.33;8.20;;;;;;;16.55;15.52;102842.45;1684344;85;21049;-68
2022/03/19 08:43:26;;;;;;;11.95;6.97;;;;;;;16.77;14.59;102842.02;1650924;86;21132;-68
2022/03/19 08:45:53;;;;;;;11.20;6.97;;;;;;;16.52;14.19;102841.19;1684281;85;21100;-68
2022/03/19 08:48:21;;;;;;;13.05;7.60;;;;;;;16.52;15.03;102842.52;1684104;85;21286;-67
2022/03/19 08:50:48;;;;;;;12.05;7.37;;;;;;;16.77;15.04;102844.26;1668802;85;21057;-68
2022/03/19 08:53:14;;;;;;;12.18;6.87;;;;;;;16.57;14.07;102844.63;1678113;85;21092;-69
2022/03/19 08:55:43;;;;;;;15.18;7.55;;;;;;;16.40;13.59;102846.72;1677886;85;21060;-69
2022/03/19 08:58:13;;;;;;;12.85;6.92;;;;;;;16.21;14.60;102853.28;1677735;85;21072;-68
2022/03/19 09:00:41;;;;;;;12.58;7.25;;;;;;;16.36;14.87;102853.02;1678089;85;21150;-69
2022/03/19 09:03:08;;;;;;;11.45;6.60;;;;;;;16.95;14.57;102848.34;1677839;84;21972;-68
2022/03/19 09:05:35;;;;;;;12.85;7.70;;;;;;;17.14;14.09;102845.33;1677964;85;21056;-68
2022/03/19 09:08:01;;;;;;;14.65;7.35;;;;;;;17.28;13.90;102847.69;1678141;85;21049;-68
2022/03/19 09:10:27;;;;;;;13.18;7.78;;;;;;;16.69;13.17;102847.97;1678208;85;21060;-69
2022/03/19 09:12:55;;;;;;;12.18;7.25;;;;;;;15.91;13.69;102850.22;1678187;85;21289;-69
2022/03/19 09:15:23;;;;;;;15.20;7.95;;;;;;;15.53;14.58;102847.69;1679835;85;21057;-68
2022/03/19 09:17:50;;;;;;;11.88;7.30;;;;;;;15.82;14.67;102846.38;1678311;85;21310;-70
2022/03/19 09:20:18;;;;;;;15.25;7.60;;;;;;;16.17;14.05;102848.45;1680106;85;20993;-69
2022/03/19 09:22:46;;;;;;;12.00;7.67;;;;;;;16.26;13.72;102848.75;1680120;85;21052;-69
2022/03/19 09:25:13;;;;;;;14.10;7.58;;;;;;;16.05;13.74;102848.21;1680503;85;21229;-70
2022/03/19 09:27:40;;;;;;;13.40;7.47;;;;;;;15.89;14.20;102845.38;1680471;85;21045;-70
2022/03/19 09:30:09;;;;;;;14.05;8.48;;;;;;;16.00;13.94;102842.10;1680247;85;21045;-68
2022/03/19 09:32:36;;;;;;;16.52;9.20;;;;;;;16.12;13.59;102847.20;1678678;85;21057;-68
2022/03/19 09:35:05;;;;;;;16.37;7.62;;;;;;;15.81;13.86;102842.86;1678225;85;21062;-68
2022/03/19 09:37:32;;;;;;;17.60;8.53;;;;;;;15.41;14.07;102837.22;1678316;85;21370;-68
2022/03/19 09:39:59;;;;;;;17.55;8.93;;;;;;;15.24;14.00;102837.00;1680908;85;21069;-68
2022/03/19 09:42:32;;;;;;;17.15;8.73;;;;;;;15.07;13.85;102841.67;1683700;85;21026;-68
2022/03/19 09:44:59;;;;;;;22.32;9.00;;;;;;;14.65;14.00;102833.30;1683752;85;21604;-68
2022/03/19 09:47:26;;;;;;;14.50;9.48;;;;;;;14.28;14.41;102833.64;1683728;85;22921;-68
2022/03/19 09:49:53;;;;;;;19.00;9.08;;;;;;;14.11;14.94;102839.11;1683433;85;21287;-68
2022/03/19 09:54:04;;;;;;;17.30;10.18;;;;;;;14.20;15.13;102831.52;1796582;79;22505;-68
2022/03/19 09:56:32;;;;;;;17.17;9.80;;;;;;;14.46;14.76;102829.48;1756426;81;21521;-67
2022/03/19 09:59:00;;;;;;;17.73;9.18;;;;;;;14.65;14.45;102825.34;1756328;81;21213;-67
2022/03/19 10:01:29;;;;;;;15.23;9.25;;;;;;;14.50;14.46;102822.84;1755280;81;20934;-68
2022/03/19 10:04:02;;;;;;;18.95;8.80;;;;;;;14.30;14.72;102819.92;1681631;82;21483;-68
2022/03/19 10:09:20;;;;;;;17.62;8.63;;;;;;;14.29;14.15;102823.48;1748153;82;21022;-69
2022/03/19 10:11:51;;;;;;;12.05;7.75;;;;;;;14.11;14.83;102821.88;1747773;82;21380;-68
2022/03/19 10:14:23;;;;;;;15.88;8.75;;;;;;;14.17;14.69;102811.23;1748338;82;21135;-69
2022/03/19 10:16:51;;;;;;;23.50;11.00;;;;;;;14.32;14.57;102814.17;1748147;81;21053;-68
2022/03/19 10:19:18;;;;;;;18.15;9.83;;;;;;;14.22;14.87;102811.19;1748162;82;21030;-68
2022/03/19 10:21:45;;;;;;;18.12;9.00;;;;;;;14.10;15.15;102809.95;1748092;81;21038;-68
2022/03/19 10:24:27;;;;;;;19.73;9.90;;;;;;;13.82;14.94;102808.86;1747991;82;21162;-68
2022/03/19 10:26:54;;;;;;;26.60;12.05;;;;;;;13.68;14.40;102812.95;1747860;82;20982;-68
2022/03/19 10:29:30;;;;;;;19.48;10.55;;;;;;;13.39;15.16;102807.86;1748066;81;21036;-68
2022/03/19 10:32:07;;;;;;;22.82;12.25;;;;;;;13.56;15.31;102800.67;1748015;82;21561;-67
2022/03/19 10:34:35;;;;;;;22.10;11.93;;;;;;;13.56;14.73;102799.80;1719720;82;21049;-69
2022/03/19 10:37:02;;;;;;;24.98;13.08;;;;;;;13.37;14.88;102800.38;1747984;82;21162;-69
2022/03/19 10:39:30;;;;;;;19.12;10.85;;;;;;;13.25;15.41;102791.12;1747952;82;21038;-69
2022/03/19 10:41:58;;;;;;;16.95;8.80;;;;;;;13.26;15.80;102791.12;1748158;82;21033;-68
2022/03/19 10:44:30;;;;;;;21.45;11.15;;;;;;;13.50;16.51;102792.77;1748438;82;21084;-69
2022/03/19 10:46:59;;;;;;;22.52;10.53;;;;;;;13.76;15.01;102797.02;1748204;82;21336;-69
2022/03/19 10:49:29;;;;;;;24.92;13.70;;;;;;;13.55;15.67;102794.96;1748158;82;21140;-68
2022/03/19 10:51:59;;;;;;;21.42;11.68;;;;;;;13.54;15.02;102794.50;1747716;82;21048;-68
2022/03/19 10:54:26;;;;;;;21.77;9.98;;;;;;;13.26;15.17;102788.94;1748040;82;21110;-68
2022/03/19 10:56:53;;;;;;;16.17;8.85;;;;;;;13.01;15.49;102791.25;1747784;82;21092;-68
2022/03/19 10:59:20;;;;;;;22.50;11.40;;;;;;;13.21;16.07;102785.86;1747860;82;21040;-67
2022/03/19 11:01:51;;;;;;;21.42;10.43;;;;;;;13.40;15.10;102781.81;1747920;82;21237;-68
2022/03/19 11:04:18;;;;;;;27.87;10.43;;;;;;;13.32;14.86;102786.27;1747649;82;21613;-67
2022/03/19 11:06:45;;;;;;;17.15;9.30;;;;;;;13.56;15.55;102779.49;1747360;82;21092;-68
2022/03/19 11:09:16;;;;;;;16.97;9.50;;;;;;;14.11;14.73;102778.61;1747493;82;21041;-68
2022/03/19 11:11:57;;;;;;;13.13;7.28;;;;;;;13.79;14.31;102775.80;1747472;82;21033;-69
2022/03/19 11:14:28;;;;;;;13.90;7.15;;;;;;;13.35;14.88;102771.71;1747530;82;21664;-68
2022/03/19 11:19:47;;;;;;;16.02;8.23;;;;;;;13.26;15.00;102772.61;1747425;81;21090;-68
2022/03/19 11:22:14;;;;;;;13.55;8.00;;;;;;;13.44;15.18;102772.97;1747427;82;21057;-67
2022/03/19 11:24:53;;;;;;;18.73;8.85;;;;;;;13.54;14.38;102773.78;1747305;82;21058;-69
2022/03/19 11:27:19;;;;;;;18.20;8.70;;;;;;;13.33;14.13;102774.36;1742614;82;21240;-68
2022/03/19 11:29:47;;;;;;;11.90;7.58;;;;;;;13.04;14.78;102776.25;1747335;82;21080;-67
2022/03/19 11:32:24;;;;;;;18.00;8.35;;;;;;;13.06;15.13;102771.38;1747324;82;21609;-68
2022/03/19 11:34:59;;;;;;;18.65;9.35;;;;;;;13.31;14.35;102765.99;1747511;81;22202;-68